sensor_id;sensor_type;location;lat;lon;timestamp;temperature;humidity
51661;DHT22;37741;49.748;8.490;2023-11-21T00:00:55;10.70;89.60
51661;DHT22;37741;49.748;8.490;2023-11-21T00:03:21;10.70;89.60
51661;DHT22;37741;49.748;8.490;2023-11-21T00:05:48;10.60;89.60
51661;DHT22;37741;49.748;8.490;2023-11-21T00:08:14;10.70;89.70
51661;DHT22;37741;49.748;8.490;2023-11-21T00:10:40;10.70;89.70
51661;DHT22;37741;49.748;8.490;2023-11-21T00:13:05;10.70;89.70
51661;DHT22;37741;49.748;8.490;2023-11-21T00:15:31;10.70;89.70
51661;DHT22;37741;49.748;8.490;2023-11-21T00:17:57;10.60;89.60
51661;DHT22;37741;49.748;8.490;2023-11-21T00:20:22;10.60;89.60
51661;DHT22;37741;49.748;8.490;2023-11-21T00:22:48;10.60;89.70
51661;DHT22;37741;49.748;8.490;2023-11-21T00:25:14;10.60;89.70
51661;DHT22;37741;49.748;8.490;2023-11-21T00:27:41;10.60;89.70
51661;DHT22;37741;49.748;8.490;2023-11-21T00:30:07;10.60;89.60
51661;DHT22;37741;49.748;8.490;2023-11-21T00:32:35;10.60;89.70
51661;DHT22;37741;49.748;8.490;2023-11-21T00:35:01;10.60;89.70
51661;DHT22;37741;49.748;8.490;2023-11-21T00:37:27;10.60;89.80
51661;DHT22;37741;49.748;8.490;2023-11-21T00:39:52;10.60;89.70
51661;DHT22;37741;49.748;8.490;2023-11-21T00:42:18;10.60;89.80
51661;DHT22;37741;49.748;8.490;2023-11-21T00:44:44;10.60;89.80
51661;DHT22;37741;49.748;8.490;2023-11-21T00:47:09;10.60;89.80
51661;DHT22;37741;49.748;8.490;2023-11-21T00:49:35;10.60;89.80
51661;DHT22;37741;49.748;8.490;2023-11-21T00:52:00;10.60;89.80
51661;DHT22;37741;49.748;8.490;2023-11-21T00:54:28;10.60;89.80
51661;DHT22;37741;49.748;8.490;2023-11-21T00:56:53;10.60;89.80
51661;DHT22;37741;49.748;8.490;2023-11-21T00:59:19;10.50;89.80
51661;DHT22;37741;49.748;8.490;2023-11-21T01:01:45;10.60;89.80
51661;DHT22;37741;49.748;8.490;2023-11-21T01:04:10;10.50;89.80
51661;DHT22;37741;49.748;8.490;2023-11-21T01:06:36;10.50;89.80
51661;DHT22;37741;49.748;8.490;2023-11-21T01:09:02;10.50;89.80
51661;DHT22;37741;49.748;8.490;2023-11-21T01:11:33;10.50;89.80
51661;DHT22;37741;49.748;8.490;2023-11-21T01:14:01;10.50;89.80
51661;DHT22;37741;49.748;8.490;2023-11-21T01:16:29;10.50;89.80
51661;DHT22;37741;49.748;8.490;2023-11-21T01:18:54;10.50;89.80
51661;DHT22;37741;49.748;8.490;2023-11-21T01:21:20;10.50;89.80
51661;DHT22;37741;49.748;8.490;2023-11-21T01:23:45;10.50;89.80
51661;DHT22;37741;49.748;8.490;2023-11-21T01:26:13;10.50;89.80
51661;DHT22;37741;49.748;8.490;2023-11-21T01:28:38;10.50;89.80
51661;DHT22;37741;49.748;8.490;2023-11-21T01:31:04;10.50;89.90
51661;DHT22;37741;49.748;8.490;2023-11-21T01:33:30;10.50;89.90
51661;DHT22;37741;49.748;8.490;2023-11-21T01:35:55;10.50;89.80
51661;DHT22;37741;49.748;8.490;2023-11-21T01:38:21;10.50;89.80
51661;DHT22;37741;49.748;8.490;2023-11-21T01:40:47;10.50;89.90
51661;DHT22;37741;49.748;8.490;2023-11-21T01:43:13;10.50;89.90
51661;DHT22;37741;49.748;8.490;2023-11-21T01:45:39;10.50;89.90
51661;DHT22;37741;49.748;8.490;2023-11-21T01:48:05;10.50;89.90
51661;DHT22;37741;49.748;8.490;2023-11-21T01:50:33;10.50;89.90
51661;DHT22;37741;49.748;8.490;2023-11-21T01:52:59;10.50;89.90
51661;DHT22;37741;49.748;8.490;2023-11-21T01:55:25;10.50;89.90
51661;DHT22;37741;49.748;8.490;2023-11-21T01:57:53;10.40;89.90
51661;DHT22;37741;49.748;8.490;2023-11-21T02:00:19;10.50;90.00
51661;DHT22;37741;49.748;8.490;2023-11-21T02:02:46;10.40;89.90
51661;DHT22;37741;49.748;8.490;2023-11-21T02:05:14;10.40;89.90
51661;DHT22;37741;49.748;8.490;2023-11-21T02:07:43;10.40;89.90
51661;DHT22;37741;49.748;8.490;2023-11-21T02:10:09;10.50;90.20
51661;DHT22;37741;49.748;8.490;2023-11-21T02:12:35;10.40;90.00
51661;DHT22;37741;49.748;8.490;2023-11-21T02:15:05;10.50;90.00
51661;DHT22;37741;49.748;8.490;2023-11-21T02:17:43;10.40;90.00
51661;DHT22;37741;49.748;8.490;2023-11-21T02:20:11;10.40;90.00
51661;DHT22;37741;49.748;8.490;2023-11-21T02:22:41;10.40;90.00
51661;DHT22;37741;49.748;8.490;2023-11-21T02:25:08;10.40;90.00
51661;DHT22;37741;49.748;8.490;2023-11-21T02:27:34;10.40;90.00
51661;DHT22;37741;49.748;8.490;2023-11-21T02:30:00;10.40;90.00
51661;DHT22;37741;49.748;8.490;2023-11-21T02:32:26;10.40;90.00
51661;DHT22;37741;49.748;8.490;2023-11-21T02:34:52;10.40;90.00
51661;DHT22;37741;49.748;8.490;2023-11-21T02:37:21;10.40;90.00
51661;DHT22;37741;49.748;8.490;2023-11-21T02:39:47;10.40;90.00
51661;DHT22;37741;49.748;8.490;2023-11-21T02:42:13;10.40;90.00
51661;DHT22;37741;49.748;8.490;2023-11-21T02:44:38;10.40;90.00
51661;DHT22;37741;49.748;8.490;2023-11-21T02:47:04;10.40;90.00
51661;DHT22;37741;49.748;8.490;2023-11-21T02:49:30;10.40;90.00
51661;DHT22;37741;49.748;8.490;2023-11-21T02:51:56;10.40;90.00
51661;DHT22;37741;49.748;8.490;2023-11-21T02:54:22;10.40;90.00
51661;DHT22;37741;49.748;8.490;2023-11-21T02:56:48;10.40;90.00
51661;DHT22;37741;49.748;8.490;2023-11-21T02:59:15;10.40;90.00
51661;DHT22;37741;49.748;8.490;2023-11-21T03:01:41;10.40;90.00
51661;DHT22;37741;49.748;8.490;2023-11-21T03:04:07;10.40;90.00
51661;DHT22;37741;49.748;8.490;2023-11-21T03:06:33;10.40;90.00
51661;DHT22;37741;49.748;8.490;2023-11-21T03:08:59;10.40;90.10
51661;DHT22;37741;49.748;8.490;2023-11-21T03:11:25;10.40;90.00
51661;DHT22;37741;49.748;8.490;2023-11-21T03:13:51;10.30;90.00
51661;DHT22;37741;49.748;8.490;2023-11-21T03:16:18;10.30;90.00
51661;DHT22;37741;49.748;8.490;2023-11-21T03:18:44;10.40;90.30
51661;DHT22;37741;49.748;8.490;2023-11-21T03:21:10;10.40;90.00
51661;DHT22;37741;49.748;8.490;2023-11-21T03:23:36;10.40;90.00
51661;DHT22;37741;49.748;8.490;2023-11-21T03:26:03;10.30;90.00
51661;DHT22;37741;49.748;8.490;2023-11-21T03:28:29;10.40;90.00
51661;DHT22;37741;49.748;8.490;2023-11-21T03:30:55;10.30;90.00
51661;DHT22;37741;49.748;8.490;2023-11-21T03:33:21;10.30;90.00
51661;DHT22;37741;49.748;8.490;2023-11-21T03:35:48;10.30;90.00
51661;DHT22;37741;49.748;8.490;2023-11-21T03:38:15;10.30;90.00
51661;DHT22;37741;49.748;8.490;2023-11-21T03:40:41;10.30;90.00
51661;DHT22;37741;49.748;8.490;2023-11-21T03:43:07;10.30;90.00
51661;DHT22;37741;49.748;8.490;2023-11-21T03:45:33;10.30;90.00
51661;DHT22;37741;49.748;8.490;2023-11-21T03:47:58;10.30;90.00
51661;DHT22;37741;49.748;8.490;2023-11-21T03:50:28;10.30;90.00
51661;DHT22;37741;49.748;8.490;2023-11-21T03:52:53;10.30;90.00
51661;DHT22;37741;49.748;8.490;2023-11-21T03:55:19;10.30;90.00
51661;DHT22;37741;49.748;8.490;2023-11-21T03:57:45;10.30;90.00
51661;DHT22;37741;49.748;8.490;2023-11-21T04:00:11;10.30;90.00
51661;DHT22;37741;49.748;8.490;2023-11-21T04:02:36;10.30;90.00
51661;DHT22;37741;49.748;8.490;2023-11-21T04:05:02;10.30;90.00
51661;DHT22;37741;49.748;8.490;2023-11-21T04:07:28;10.30;90.00
51661;DHT22;37741;49.748;8.490;2023-11-21T04:09:54;10.30;90.00
51661;DHT22;37741;49.748;8.490;2023-11-21T04:12:20;10.30;90.00
51661;DHT22;37741;49.748;8.490;2023-11-21T04:14:46;10.30;90.00
51661;DHT22;37741;49.748;8.490;2023-11-21T04:17:11;10.30;90.00
51661;DHT22;37741;49.748;8.490;2023-11-21T04:19:37;10.30;90.00
51661;DHT22;37741;49.748;8.490;2023-11-21T04:22:03;10.30;90.00
51661;DHT22;37741;49.748;8.490;2023-11-21T04:24:29;10.30;90.00
51661;DHT22;37741;49.748;8.490;2023-11-21T04:26:55;10.30;90.10
51661;DHT22;37741;49.748;8.490;2023-11-21T04:29:21;10.30;90.00
51661;DHT22;37741;49.748;8.490;2023-11-21T04:31:46;10.30;90.00
51661;DHT22;37741;49.748;8.490;2023-11-21T04:34:14;10.30;90.10
51661;DHT22;37741;49.748;8.490;2023-11-21T04:36:40;10.30;90.10
51661;DHT22;37741;49.748;8.490;2023-11-21T04:39:05;10.30;90.00
51661;DHT22;37741;49.748;8.490;2023-11-21T04:41:32;10.30;90.00
51661;DHT22;37741;49.748;8.490;2023-11-21T04:43:58;10.30;90.00
51661;DHT22;37741;49.748;8.490;2023-11-21T04:46:24;10.30;90.10
51661;DHT22;37741;49.748;8.490;2023-11-21T04:48:49;10.30;90.10
51661;DHT22;37741;49.748;8.490;2023-11-21T04:51:15;10.30;90.10
51661;DHT22;37741;49.748;8.490;2023-11-21T04:53:40;10.30;90.00
51661;DHT22;37741;49.748;8.490;2023-11-21T04:56:06;10.30;90.10
51661;DHT22;37741;49.748;8.490;2023-11-21T04:58:32;10.30;90.00
51661;DHT22;37741;49.748;8.490;2023-11-21T05:00:58;10.30;90.10
51661;DHT22;37741;49.748;8.490;2023-11-21T05:03:24;10.30;90.10
51661;DHT22;37741;49.748;8.490;2023-11-21T05:05:49;10.30;90.10
51661;DHT22;37741;49.748;8.490;2023-11-21T05:08:15;10.20;90.00
51661;DHT22;37741;49.748;8.490;2023-11-21T05:10:40;10.30;90.10
51661;DHT22;37741;49.748;8.490;2023-11-21T05:13:06;10.30;90.10
51661;DHT22;37741;49.748;8.490;2023-11-21T05:15:36;10.30;90.20
51661;DHT22;37741;49.748;8.490;2023-11-21T05:18:03;10.30;90.20
51661;DHT22;37741;49.748;8.490;2023-11-21T05:20:29;10.20;90.10
51661;DHT22;37741;49.748;8.490;2023-11-21T05:22:54;10.20;90.10
51661;DHT22;37741;49.748;8.490;2023-11-21T05:25:20;10.20;90.20
51661;DHT22;37741;49.748;8.490;2023-11-21T05:27:46;10.20;90.20
51661;DHT22;37741;49.748;8.490;2023-11-21T05:30:13;10.20;90.30
51661;DHT22;37741;49.748;8.490;2023-11-21T05:32:40;10.20;90.30
51661;DHT22;37741;49.748;8.490;2023-11-21T05:35:08;10.20;90.40
51661;DHT22;37741;49.748;8.490;2023-11-21T05:37:38;10.20;90.40
51661;DHT22;37741;49.748;8.490;2023-11-21T05:40:07;10.20;90.40
51661;DHT22;37741;49.748;8.490;2023-11-21T05:42:36;10.10;90.40
51661;DHT22;37741;49.748;8.490;2023-11-21T05:45:04;10.20;90.40
51661;DHT22;37741;49.748;8.490;2023-11-21T05:47:40;10.20;90.50
51661;DHT22;37741;49.748;8.490;2023-11-21T05:50:10;10.20;90.50
51661;DHT22;37741;49.748;8.490;2023-11-21T05:52:40;10.20;90.50
51661;DHT22;37741;49.748;8.490;2023-11-21T05:55:06;10.10;90.60
51661;DHT22;37741;49.748;8.490;2023-11-21T05:57:36;10.20;90.60
51661;DHT22;37741;49.748;8.490;2023-11-21T06:00:06;10.20;90.60
51661;DHT22;37741;49.748;8.490;2023-11-21T06:02:41;10.10;90.60
51661;DHT22;37741;49.748;8.490;2023-11-21T06:05:07;10.10;90.60
51661;DHT22;37741;49.748;8.490;2023-11-21T06:07:34;10.10;90.60
51661;DHT22;37741;49.748;8.490;2023-11-21T06:10:03;10.10;90.60
51661;DHT22;37741;49.748;8.490;2023-11-21T06:12:32;10.10;90.60
51661;DHT22;37741;49.748;8.490;2023-11-21T06:15:04;10.10;90.60
51661;DHT22;37741;49.748;8.490;2023-11-21T06:17:35;10.10;90.60
51661;DHT22;37741;49.748;8.490;2023-11-21T06:20:05;10.10;90.60
51661;DHT22;37741;49.748;8.490;2023-11-21T06:22:39;10.10;90.60
51661;DHT22;37741;49.748;8.490;2023-11-21T06:25:05;10.10;90.60
51661;DHT22;37741;49.748;8.490;2023-11-21T06:27:32;10.10;90.60
51661;DHT22;37741;49.748;8.490;2023-11-21T06:29:58;10.10;90.60
51661;DHT22;37741;49.748;8.490;2023-11-21T06:32:24;10.10;90.60
51661;DHT22;37741;49.748;8.490;2023-11-21T06:34:49;10.10;90.70
51661;DHT22;37741;49.748;8.490;2023-11-21T06:37:21;10.10;90.70
51661;DHT22;37741;49.748;8.490;2023-11-21T06:39:49;10.10;90.70
51661;DHT22;37741;49.748;8.490;2023-11-21T06:42:15;10.10;90.60
51661;DHT22;37741;49.748;8.490;2023-11-21T06:44:41;10.00;90.70
51661;DHT22;37741;49.748;8.490;2023-11-21T06:47:07;10.00;90.60
51661;DHT22;37741;49.748;8.490;2023-11-21T06:49:32;10.10;90.70
51661;DHT22;37741;49.748;8.490;2023-11-21T06:51:58;10.10;90.80
51661;DHT22;37741;49.748;8.490;2023-11-21T06:54:24;10.10;90.70
51661;DHT22;37741;49.748;8.490;2023-11-21T06:56:50;10.00;90.80
51661;DHT22;37741;49.748;8.490;2023-11-21T06:59:16;10.10;90.80
51661;DHT22;37741;49.748;8.490;2023-11-21T07:01:41;10.10;90.80
51661;DHT22;37741;49.748;8.490;2023-11-21T07:04:08;10.00;90.80
51661;DHT22;37741;49.748;8.490;2023-11-21T07:06:35;10.00;90.80
51661;DHT22;37741;49.748;8.490;2023-11-21T07:09:01;10.10;90.80
51661;DHT22;37741;49.748;8.490;2023-11-21T07:11:27;10.00;90.70
51661;DHT22;37741;49.748;8.490;2023-11-21T07:13:55;10.00;90.70
51661;DHT22;37741;49.748;8.490;2023-11-21T07:16:20;10.00;90.80
51661;DHT22;37741;49.748;8.490;2023-11-21T07:18:47;10.00;90.80
51661;DHT22;37741;49.748;8.490;2023-11-21T07:21:14;10.00;90.80
51661;DHT22;37741;49.748;8.490;2023-11-21T07:23:41;10.00;90.80
51661;DHT22;37741;49.748;8.490;2023-11-21T07:26:07;10.00;90.80
51661;DHT22;37741;49.748;8.490;2023-11-21T07:28:36;10.00;90.80
51661;DHT22;37741;49.748;8.490;2023-11-21T07:31:02;10.00;90.80
51661;DHT22;37741;49.748;8.490;2023-11-21T07:33:30;10.00;90.80
51661;DHT22;37741;49.748;8.490;2023-11-21T07:36:01;10.00;90.80
51661;DHT22;37741;49.748;8.490;2023-11-21T07:38:30;10.00;90.80
51661;DHT22;37741;49.748;8.490;2023-11-21T07:41:00;10.00;90.80
51661;DHT22;37741;49.748;8.490;2023-11-21T07:43:27;10.00;90.80
51661;DHT22;37741;49.748;8.490;2023-11-21T07:45:55;10.00;90.80
51661;DHT22;37741;49.748;8.490;2023-11-21T07:48:20;10.00;90.80
51661;DHT22;37741;49.748;8.490;2023-11-21T07:50:46;10.00;90.80
51661;DHT22;37741;49.748;8.490;2023-11-21T07:53:13;10.00;90.80
51661;DHT22;37741;49.748;8.490;2023-11-21T07:55:39;10.00;90.80
51661;DHT22;37741;49.748;8.490;2023-11-21T07:58:05;10.00;90.80
51661;DHT22;37741;49.748;8.490;2023-11-21T08:00:31;10.00;90.80
51661;DHT22;37741;49.748;8.490;2023-11-21T08:02:57;10.00;90.80
51661;DHT22;37741;49.748;8.490;2023-11-21T08:05:23;10.00;90.80
51661;DHT22;37741;49.748;8.490;2023-11-21T08:07:48;10.00;90.80
51661;DHT22;37741;49.748;8.490;2023-11-21T08:10:14;10.00;90.80
51661;DHT22;37741;49.748;8.490;2023-11-21T08:12:40;10.00;91.10
51661;DHT22;37741;49.748;8.490;2023-11-21T08:15:08;10.00;90.80
51661;DHT22;37741;49.748;8.490;2023-11-21T08:17:37;10.00;90.80
51661;DHT22;37741;49.748;8.490;2023-11-21T08:20:02;10.00;90.90
51661;DHT22;37741;49.748;8.490;2023-11-21T08:22:29;10.00;90.90
51661;DHT22;37741;49.748;8.490;2023-11-21T08:24:54;10.00;90.90
51661;DHT22;37741;49.748;8.490;2023-11-21T08:27:22;10.00;90.90
51661;DHT22;37741;49.748;8.490;2023-11-21T08:29:47;10.00;90.90
51661;DHT22;37741;49.748;8.490;2023-11-21T08:32:13;10.00;90.90
51661;DHT22;37741;49.748;8.490;2023-11-21T08:34:38;10.00;90.90
51661;DHT22;37741;49.748;8.490;2023-11-21T08:37:05;10.00;90.90
51661;DHT22;37741;49.748;8.490;2023-11-21T08:39:31;10.00;90.90
51661;DHT22;37741;49.748;8.490;2023-11-21T08:41:57;10.00;90.90
51661;DHT22;37741;49.748;8.490;2023-11-21T08:44:23;10.00;91.00
51661;DHT22;37741;49.748;8.490;2023-11-21T08:46:48;10.00;91.00
51661;DHT22;37741;49.748;8.490;2023-11-21T08:49:14;10.00;91.00
51661;DHT22;37741;49.748;8.490;2023-11-21T08:51:42;10.00;91.00
51661;DHT22;37741;49.748;8.490;2023-11-21T08:54:10;10.00;90.90
51661;DHT22;37741;49.748;8.490;2023-11-21T08:56:37;10.00;90.90
51661;DHT22;37741;49.748;8.490;2023-11-21T08:59:03;10.00;90.90
51661;DHT22;37741;49.748;8.490;2023-11-21T09:01:29;10.00;91.00
51661;DHT22;37741;49.748;8.490;2023-11-21T09:03:58;10.00;90.90
51661;DHT22;37741;49.748;8.490;2023-11-21T09:06:24;10.00;90.90
51661;DHT22;37741;49.748;8.490;2023-11-21T09:08:50;10.00;90.90
51661;DHT22;37741;49.748;8.490;2023-11-21T09:11:16;10.00;90.90
51661;DHT22;37741;49.748;8.490;2023-11-21T09:13:42;10.00;90.90
51661;DHT22;37741;49.748;8.490;2023-11-21T09:16:08;10.00;90.90
51661;DHT22;37741;49.748;8.490;2023-11-21T09:18:33;10.00;91.00
51661;DHT22;37741;49.748;8.490;2023-11-21T09:20:59;10.00;91.00
51661;DHT22;37741;49.748;8.490;2023-11-21T09:23:25;10.10;91.00
51661;DHT22;37741;49.748;8.490;2023-11-21T09:25:50;10.00;90.90
51661;DHT22;37741;49.748;8.490;2023-11-21T09:28:17;10.00;90.90
51661;DHT22;37741;49.748;8.490;2023-11-21T09:30:44;10.00;91.00
51661;DHT22;37741;49.748;8.490;2023-11-21T09:33:09;10.00;91.00
51661;DHT22;37741;49.748;8.490;2023-11-21T09:35:39;10.00;91.00
51661;DHT22;37741;49.748;8.490;2023-11-21T09:38:04;10.00;91.00
51661;DHT22;37741;49.748;8.490;2023-11-21T09:40:37;10.00;91.00
51661;DHT22;37741;49.748;8.490;2023-11-21T09:43:07;10.00;91.00
51661;DHT22;37741;49.748;8.490;2023-11-21T09:45:38;10.00;91.00
51661;DHT22;37741;49.748;8.490;2023-11-21T09:48:05;10.10;91.00
51661;DHT22;37741;49.748;8.490;2023-11-21T09:50:32;10.00;91.10
51661;DHT22;37741;49.748;8.490;2023-11-21T09:55:44;10.10;91.10
51661;DHT22;37741;49.748;8.490;2023-11-21T09:58:10;10.10;91.10
51661;DHT22;37741;49.748;8.490;2023-11-21T10:00:47;10.00;91.00
51661;DHT22;37741;49.748;8.490;2023-11-21T10:03:13;10.00;91.00
51661;DHT22;37741;49.748;8.490;2023-11-21T10:05:40;10.00;91.00
51661;DHT22;37741;49.748;8.490;2023-11-21T10:08:11;10.10;91.00
51661;DHT22;37741;49.748;8.490;2023-11-21T10:10:38;10.10;91.00
51661;DHT22;37741;49.748;8.490;2023-11-21T10:13:11;10.00;91.00
51661;DHT22;37741;49.748;8.490;2023-11-21T10:15:38;10.10;91.00
51661;DHT22;37741;49.748;8.490;2023-11-21T10:18:04;10.10;91.00
51661;DHT22;37741;49.748;8.490;2023-11-21T10:20:32;10.00;91.00
51661;DHT22;37741;49.748;8.490;2023-11-21T10:23:03;10.10;91.00
51661;DHT22;37741;49.748;8.490;2023-11-21T10:25:30;10.10;90.90
51661;DHT22;37741;49.748;8.490;2023-11-21T10:28:01;10.10;91.00
51661;DHT22;37741;49.748;8.490;2023-11-21T10:30:35;10.10;90.90
51661;DHT22;37741;49.748;8.490;2023-11-21T10:33:03;10.10;91.20
51661;DHT22;37741;49.748;8.490;2023-11-21T10:35:43;10.10;90.90
51661;DHT22;37741;49.748;8.490;2023-11-21T10:38:12;10.10;90.90
51661;DHT22;37741;49.748;8.490;2023-11-21T10:40:42;10.10;90.90
51661;DHT22;37741;49.748;8.490;2023-11-21T10:43:12;10.10;90.90
51661;DHT22;37741;49.748;8.490;2023-11-21T10:45:41;10.10;90.90
51661;DHT22;37741;49.748;8.490;2023-11-21T10:48:09;10.10;90.90
51661;DHT22;37741;49.748;8.490;2023-11-21T10:50:37;10.10;90.80
51661;DHT22;37741;49.748;8.490;2023-11-21T10:53:03;10.10;90.80
51661;DHT22;37741;49.748;8.490;2023-11-21T10:55:30;10.20;90.80
51661;DHT22;37741;49.748;8.490;2023-11-21T10:57:59;10.10;91.10
51661;DHT22;37741;49.748;8.490;2023-11-21T11:00:27;10.10;90.80
51661;DHT22;37741;49.748;8.490;2023-11-21T11:02:53;10.20;90.80
51661;DHT22;37741;49.748;8.490;2023-11-21T11:05:25;10.10;90.80
51661;DHT22;37741;49.748;8.490;2023-11-21T11:10:45;10.20;90.80
51661;DHT22;37741;49.748;8.490;2023-11-21T11:13:13;10.20;90.80
51661;DHT22;37741;49.748;8.490;2023-11-21T11:15:40;10.20;90.70
51661;DHT22;37741;49.748;8.490;2023-11-21T11:18:07;10.20;90.70
51661;DHT22;37741;49.748;8.490;2023-11-21T11:20:36;10.20;90.80
51661;DHT22;37741;49.748;8.490;2023-11-21T11:28:51;10.20;90.70
51661;DHT22;37741;49.748;8.490;2023-11-21T11:34:04;10.20;90.60
51661;DHT22;37741;49.748;8.490;2023-11-21T11:36:47;10.30;90.90
51661;DHT22;37741;49.748;8.490;2023-11-21T11:39:37;10.20;90.60
51661;DHT22;37741;49.748;8.490;2023-11-21T11:42:08;10.30;90.60
51661;DHT22;37741;49.748;8.490;2023-11-21T11:47:16;10.30;90.60
51661;DHT22;37741;49.748;8.490;2023-11-21T11:49:59;10.30;90.60
51661;DHT22;37741;49.748;8.490;2023-11-21T11:52:32;10.30;90.60
51661;DHT22;37741;49.748;8.490;2023-11-21T11:55:00;10.30;90.60
51661;DHT22;37741;49.748;8.490;2023-11-21T11:57:25;10.30;90.50
51661;DHT22;37741;49.748;8.490;2023-11-21T12:02:40;10.30;90.50
51661;DHT22;37741;49.748;8.490;2023-11-21T12:05:10;10.30;90.40
51661;DHT22;37741;49.748;8.490;2023-11-21T12:07:46;10.40;90.40
51661;DHT22;37741;49.748;8.490;2023-11-21T12:10:17;10.40;90.40
51661;DHT22;37741;49.748;8.490;2023-11-21T12:12:47;10.40;90.40
51661;DHT22;37741;49.748;8.490;2023-11-21T12:15:13;10.40;90.40
51661;DHT22;37741;49.748;8.490;2023-11-21T12:17:41;10.40;90.30
51661;DHT22;37741;49.748;8.490;2023-11-21T12:20:07;10.40;90.30
51661;DHT22;37741;49.748;8.490;2023-11-21T12:22:42;10.40;90.30
51661;DHT22;37741;49.748;8.490;2023-11-21T12:25:08;10.40;90.30
51661;DHT22;37741;49.748;8.490;2023-11-21T12:27:34;10.40;90.30
51661;DHT22;37741;49.748;8.490;2023-11-21T12:30:00;10.40;90.30
51661;DHT22;37741;49.748;8.490;2023-11-21T12:32:26;10.40;90.50
51661;DHT22;37741;49.748;8.490;2023-11-21T12:34:52;10.50;90.30
51661;DHT22;37741;49.748;8.490;2023-11-21T12:37:18;10.40;90.20
51661;DHT22;37741;49.748;8.490;2023-11-21T12:39:43;10.50;90.30
51661;DHT22;37741;49.748;8.490;2023-11-21T12:42:09;10.50;90.30
51661;DHT22;37741;49.748;8.490;2023-11-21T12:44:39;10.50;90.20
51661;DHT22;37741;49.748;8.490;2023-11-21T12:47:06;10.50;90.20
51661;DHT22;37741;49.748;8.490;2023-11-21T12:49:33;10.40;90.20
51661;DHT22;37741;49.748;8.490;2023-11-21T12:51:59;10.50;90.20
51661;DHT22;37741;49.748;8.490;2023-11-21T12:54:25;10.50;90.20
51661;DHT22;37741;49.748;8.490;2023-11-21T12:56:51;10.50;90.20
51661;DHT22;37741;49.748;8.490;2023-11-21T12:59:16;10.50;90.20
51661;DHT22;37741;49.748;8.490;2023-11-21T13:01:43;10.50;90.10
51661;DHT22;37741;49.748;8.490;2023-11-21T13:04:09;10.50;90.20
51661;DHT22;37741;49.748;8.490;2023-11-21T13:06:36;10.50;90.10
51661;DHT22;37741;49.748;8.490;2023-11-21T13:09:07;10.50;90.10
51661;DHT22;37741;49.748;8.490;2023-11-21T13:11:36;10.50;90.10
51661;DHT22;37741;49.748;8.490;2023-11-21T13:14:02;10.60;90.10
51661;DHT22;37741;49.748;8.490;2023-11-21T13:16:29;10.50;90.00
51661;DHT22;37741;49.748;8.490;2023-11-21T13:18:55;10.50;90.00
51661;DHT22;37741;49.748;8.490;2023-11-21T13:21:21;10.60;90.00
51661;DHT22;37741;49.748;8.490;2023-11-21T13:23:48;10.60;90.00
51661;DHT22;37741;49.748;8.490;2023-11-21T13:26:16;10.60;90.00
51661;DHT22;37741;49.748;8.490;2023-11-21T13:28:42;10.60;90.00
51661;DHT22;37741;49.748;8.490;2023-11-21T13:31:11;10.60;90.00
51661;DHT22;37741;49.748;8.490;2023-11-21T13:33:48;10.60;90.00
51661;DHT22;37741;49.748;8.490;2023-11-21T13:36:24;10.60;90.00
51661;DHT22;37741;49.748;8.490;2023-11-21T13:38:50;10.60;90.00
51661;DHT22;37741;49.748;8.490;2023-11-21T13:41:18;10.60;90.00
51661;DHT22;37741;49.748;8.490;2023-11-21T13:43:44;10.60;90.00
51661;DHT22;37741;49.748;8.490;2023-11-21T13:46:19;10.60;89.80
51661;DHT22;37741;49.748;8.490;2023-11-21T13:48:48;10.60;89.80
51661;DHT22;37741;49.748;8.490;2023-11-21T13:51:24;10.60;89.60
51661;DHT22;37741;49.748;8.490;2023-11-21T13:54:10;10.60;89.60
51661;DHT22;37741;49.748;8.490;2023-11-21T13:56:36;10.60;89.80
51661;DHT22;37741;49.748;8.490;2023-11-21T13:59:02;10.60;89.80
51661;DHT22;37741;49.748;8.490;2023-11-21T14:01:49;10.60;89.70
51661;DHT22;37741;49.748;8.490;2023-11-21T14:04:18;10.60;89.70
51661;DHT22;37741;49.748;8.490;2023-11-21T14:06:47;10.60;89.60
51661;DHT22;37741;49.748;8.490;2023-11-21T14:09:24;10.60;89.60
51661;DHT22;37741;49.748;8.490;2023-11-21T14:11:58;10.60;89.70
51661;DHT22;37741;49.748;8.490;2023-11-21T14:14:27;10.60;89.70
51661;DHT22;37741;49.748;8.490;2023-11-21T14:16:53;10.60;89.20
51661;DHT22;37741;49.748;8.490;2023-11-21T14:19:21;10.60;89.20
51661;DHT22;37741;49.748;8.490;2023-11-21T14:21:47;10.60;89.30
51661;DHT22;37741;49.748;8.490;2023-11-21T14:24:16;10.60;89.30
51661;DHT22;37741;49.748;8.490;2023-11-21T14:26:46;10.60;89.10
51661;DHT22;37741;49.748;8.490;2023-11-21T14:29:15;10.60;89.50
51661;DHT22;37741;49.748;8.490;2023-11-21T14:31:45;10.50;88.90
51661;DHT22;37741;49.748;8.490;2023-11-21T14:34:11;10.50;90.00
51661;DHT22;37741;49.748;8.490;2023-11-21T14:36:38;10.60;89.60
51661;DHT22;37741;49.748;8.490;2023-11-21T14:39:05;10.50;89.40
51661;DHT22;37741;49.748;8.490;2023-11-21T14:41:35;10.50;89.50
51661;DHT22;37741;49.748;8.490;2023-11-21T14:44:02;10.50;89.60
51661;DHT22;37741;49.748;8.490;2023-11-21T14:46:33;10.50;89.60
51661;DHT22;37741;49.748;8.490;2023-11-21T14:49:00;10.50;89.70
51661;DHT22;37741;49.748;8.490;2023-11-21T14:51:47;10.50;89.40
51661;DHT22;37741;49.748;8.490;2023-11-21T14:54:30;10.50;89.60
51661;DHT22;37741;49.748;8.490;2023-11-21T14:57:13;10.50;89.50
51661;DHT22;37741;49.748;8.490;2023-11-21T14:59:45;10.50;89.30
51661;DHT22;37741;49.748;8.490;2023-11-21T15:02:17;10.50;89.50
51661;DHT22;37741;49.748;8.490;2023-11-21T15:05:09;10.50;89.70
51661;DHT22;37741;49.748;8.490;2023-11-21T15:07:40;10.50;89.60
51661;DHT22;37741;49.748;8.490;2023-11-21T15:10:07;10.50;89.80
51661;DHT22;37741;49.748;8.490;2023-11-21T15:12:38;10.50;89.80
51661;DHT22;37741;49.748;8.490;2023-11-21T15:15:05;10.50;89.80
51661;DHT22;37741;49.748;8.490;2023-11-21T15:17:36;10.50;89.80
51661;DHT22;37741;49.748;8.490;2023-11-21T15:20:03;10.50;89.90
51661;DHT22;37741;49.748;8.490;2023-11-21T15:22:29;10.50;89.90
51661;DHT22;37741;49.748;8.490;2023-11-21T15:24:55;10.50;89.90
51661;DHT22;37741;49.748;8.490;2023-11-21T15:27:21;10.50;90.00
51661;DHT22;37741;49.748;8.490;2023-11-21T15:29:47;10.50;90.00
51661;DHT22;37741;49.748;8.490;2023-11-21T15:32:15;10.40;89.60
51661;DHT22;37741;49.748;8.490;2023-11-21T15:34:41;10.40;89.30
51661;DHT22;37741;49.748;8.490;2023-11-21T15:37:08;10.50;89.60
51661;DHT22;37741;49.748;8.490;2023-11-21T15:39:37;10.50;89.60
51661;DHT22;37741;49.748;8.490;2023-11-21T15:42:03;10.50;89.80
51661;DHT22;37741;49.748;8.490;2023-11-21T15:44:30;10.50;89.80
51661;DHT22;37741;49.748;8.490;2023-11-21T15:46:58;10.50;89.70
51661;DHT22;37741;49.748;8.490;2023-11-21T15:49:24;10.50;89.60
51661;DHT22;37741;49.748;8.490;2023-11-21T15:51:52;10.50;89.80